Time;durP1;ratioP1;P1;durP2;ratioP2;P2;SDS_P1;SDS_P2;PMS_P1;PMS_P2;Temp;Humidity;BMP_temperature;BMP_pressure;BME280_temperature;BME280_humidity;BME280_pressure;Samples;Min_cycle;Max_cycle;Signal;HPM_P1;HPM_P2
2024/01/04 00:02:23;;;;;;;34.90;23.20;;;;;;;2.74;78.58;97253.52;107368;1257;74311;-41
2024/01/04 00:04:50;;;;;;;35.90;23.70;;;;;;;2.74;78.40;97251.99;107332;1257;68019;-40
2024/01/04 00:07:17;;;;;;;34.30;23.50;;;;;;;2.73;78.28;97252.06;107354;1256;73144;-41
2024/01/04 00:09:44;;;;;;;34.10;22.90;;;;;;;2.72;78.22;97250.42;107377;1256;60319;-41
2024/01/04 00:12:10;;;;;;;31.90;20.80;;;;;;;2.69;77.93;97248.93;107380;1257;60486;-41
2024/01/04 00:14:37;;;;;;;28.00;20.30;;;;;;;2.72;77.82;97248.30;107380;1256;74874;-40
2024/01/04 00:17:04;;;;;;;29.20;20.00;;;;;;;2.78;77.56;97249.45;107382;1260;67800;-40
2024/01/04 00:19:30;;;;;;;32.20;22.20;;;;;;;2.76;77.33;97247.97;107359;1257;73527;-41
2024/01/04 00:21:57;;;;;;;32.40;21.40;;;;;;;2.74;77.42;97248.11;107357;1257;60322;-40
2024/01/04 00:24:24;;;;;;;29.50;19.30;;;;;;;2.72;77.21;97252.50;107410;1257;60408;-41
2024/01/04 00:26:50;;;;;;;24.50;16.20;;;;;;;2.70;77.26;97254.99;107371;1257;73419;-40
2024/01/04 00:29:17;;;;;;;29.70;20.50;;;;;;;2.68;77.92;97253.64;107434;1256;67894;-40
2024/01/04 00:31:44;;;;;;;31.00;20.70;;;;;;;2.65;77.87;97250.11;107388;1256;73093;-41
2024/01/04 00:34:11;;;;;;;24.30;16.60;;;;;;;2.65;77.80;97239.17;107227;1257;60498;-41
2024/01/04 00:36:38;;;;;;;15.90;11.50;;;;;;;2.79;77.76;97252.15;107416;1256;60322;-41
2024/01/04 00:39:06;;;;;;;17.30;11.40;;;;;;;2.77;79.15;97250.81;107477;1255;74462;-40
2024/01/04 00:41:33;;;;;;;16.60;10.80;;;;;;;2.75;80.06;97251.86;107411;1257;67915;-40
2024/01/04 00:44:00;;;;;;;12.40;8.50;;;;;;;2.72;81.00;97250.81;107402;1256;73138;-40
2024/01/04 00:46:26;;;;;;;9.70;6.70;;;;;;;2.74;82.02;97248.63;107192;1262;60847;-41
2024/01/04 00:48:53;;;;;;;10.40;6.80;;;;;;;2.82;83.07;97246.39;107373;1258;60447;-40
2024/01/04 00:51:20;;;;;;;10.30;5.70;;;;;;;2.89;83.83;97241.84;107433;1256;72541;-40
2024/01/04 00:53:46;;;;;;;8.60;5.30;;;;;;;2.91;84.56;97239.02;107339;1257;67695;-41
2024/01/04 00:56:13;;;;;;;6.90;4.70;;;;;;;2.92;85.26;97237.66;107205;1257;73253;-40
2024/01/04 00:58:40;;;;;;;6.70;4.60;;;;;;;2.94;85.79;97234.10;107356;1260;61061;-40
2024/01/04 01:01:06;;;;;;;5.10;3.80;;;;;;;3.01;85.87;97238.57;107371;1256;60472;-41
2024/01/04 01:03:33;;;;;;;6.00;3.60;;;;;;;3.10;86.16;97235.86;107396;1257;74490;-40
2024/01/04 01:06:00;;;;;;;6.10;3.70;;;;;;;3.13;86.71;97240.25;107385;1257;66601;-40
2024/01/04 01:08:27;;;;;;;5.40;3.80;;;;;;;3.12;87.45;97239.86;107358;1256;73235;-41
2024/01/04 01:10:54;;;;;;;5.60;3.60;;;;;;;3.14;88.09;97233.08;107421;1255;61237;-40
2024/01/04 01:13:22;;;;;;;3.90;2.90;;;;;;;3.24;88.30;97235.50;107485;1257;60492;-40
2024/01/04 01:15:49;;;;;;;4.80;3.00;;;;;;;3.34;88.43;97237.17;107444;1257;74370;-40
2024/01/04 01:18:16;;;;;;;4.60;2.50;;;;;;;3.36;88.71;97238.66;107458;1255;67556;-40
2024/01/04 01:20:43;;;;;;;4.00;3.20;;;;;;;3.36;89.02;97238.95;107296;1257;72794;-40
2024/01/04 01:23:09;;;;;;;4.50;2.80;;;;;;;3.36;89.20;97240.48;107399;1257;61114;-39
2024/01/04 01:25:36;;;;;;;4.20;3.10;;;;;;;3.43;89.13;97240.02;107269;1257;60434;-40
2024/01/04 01:28:03;;;;;;;4.60;2.90;;;;;;;3.49;89.02;97245.02;107354;1260;73421;-40
2024/01/04 01:30:30;;;;;;;3.60;2.70;;;;;;;3.50;89.14;97243.58;107363;1257;68105;-40
2024/01/04 01:32:57;;;;;;;4.60;3.20;;;;;;;3.48;89.29;97242.33;107274;1257;73214;-40
2024/01/04 01:35:24;;;;;;;5.60;3.10;;;;;;;3.45;89.58;97241.91;107455;1256;61043;-40
2024/01/04 01:37:51;;;;;;;4.00;2.90;;;;;;;3.51;89.49;97239.84;107455;1256;60434;-41
2024/01/04 01:40:18;;;;;;;3.80;2.50;;;;;;;3.59;89.28;97240.23;107478;1257;74438;-40
2024/01/04 01:42:48;;;;;;;3.70;3.00;;;;;;;3.61;89.28;97244.09;107450;1257;67906;-40
2024/01/04 01:45:20;;;;;;;6.30;3.10;;;;;;;3.59;89.40;97244.44;107379;1256;70368;-40
2024/01/04 01:47:47;;;;;;;3.70;2.70;;;;;;;3.55;89.41;97246.45;107240;1257;60064;-41
2024/01/04 01:50:19;;;;;;;4.50;2.80;;;;;;;3.57;89.29;97246.95;107237;1255;60444;-40
2024/01/04 01:52:46;;;;;;;3.20;2.60;;;;;;;3.64;88.98;97250.63;107438;1259;74221;-40
2024/01/04 01:55:13;;;;;;;3.90;2.60;;;;;;;3.66;89.17;97249.35;107429;1257;67690;-40
2024/01/04 01:57:40;;;;;;;4.10;2.90;;;;;;;3.67;89.18;97252.27;107403;1257;73028;-40
2024/01/04 02:00:09;;;;;;;4.90;2.90;;;;;;;3.67;89.05;97258.33;107126;1257;60998;-40
2024/01/04 02:02:39;;;;;;;4.50;2.70;;;;;;;3.71;88.80;97257.98;107380;1260;60358;-40
2024/01/04 02:05:07;;;;;;;3.70;2.50;;;;;;;3.77;88.56;97256.67;107333;1256;74417;-40
2024/01/04 02:07:33;;;;;;;5.10;2.80;;;;;;;3.75;88.42;97257.88;107424;1257;67936;-40
2024/01/04 02:10:00;;;;;;;3.20;2.70;;;;;;;3.71;88.30;97255.98;107420;1258;72037;-40
2024/01/04 02:12:27;;;;;;;3.60;2.30;;;;;;;3.65;88.31;97260.14;107448;1257;61218;-40
2024/01/04 02:14:54;;;;;;;5.50;2.90;;;;;;;3.66;88.10;97262.21;107446;1257;60097;-40
2024/01/04 02:17:21;;;;;;;3.80;2.50;;;;;;;3.68;87.90;97259.40;107443;1256;74213;-40
2024/01/04 02:19:48;;;;;;;4.90;2.80;;;;;;;3.67;87.88;97258.09;107440;1257;68228;-40
2024/01/04 02:22:17;;;;;;;4.70;2.80;;;;;;;3.63;87.98;97259.95;107275;1257;71378;-40
2024/01/04 02:24:44;;;;;;;4.20;2.70;;;;;;;3.59;87.98;97259.60;107259;1257;61011;-40
2024/01/04 02:27:12;;;;;;;4.00;2.90;;;;;;;3.61;87.76;97260.32;107421;1254;60549;-40
2024/01/04 02:29:39;;;;;;;4.90;2.80;;;;;;;3.63;87.51;97258.27;107453;1257;73740;-40
2024/01/04 02:32:06;;;;;;;3.80;2.60;;;;;;;3.60;87.50;97260.84;107273;1256;67998;-41
2024/01/04 02:34:33;;;;;;;4.00;2.80;;;;;;;3.56;87.68;97259.10;107432;1255;73265;-40
2024/01/04 02:37:00;;;;;;;3.30;2.70;;;;;;;3.52;88.01;97261.66;107451;1255;61053;-40
2024/01/04 02:39:27;;;;;;;3.50;2.80;;;;;;;3.54;87.79;97263.89;107450;1257;60446;-40
2024/01/04 02:41:54;;;;;;;4.60;3.00;;;;;;;3.56;87.70;97269.89;107428;1257;74399;-41
2024/01/04 02:44:21;;;;;;;6.00;3.30;;;;;;;3.50;87.87;97273.51;107261;1257;68011;-40
2024/01/04 02:46:48;;;;;;;4.80;3.20;;;;;;;3.42;88.04;97275.77;107437;1257;73032;-40
2024/01/04 02:49:15;;;;;;;3.50;2.60;;;;;;;3.38;88.44;97282.38;107441;1257;60915;-40
2024/01/04 02:51:42;;;;;;;2.90;2.20;;;;;;;3.41;88.71;97287.83;107471;1258;60436;-41
2024/01/04 02:54:09;;;;;;;4.70;2.60;;;;;;;3.46;88.93;97286.38;107480;1257;74302;-40
2024/01/04 02:56:36;;;;;;;3.60;2.90;;;;;;;3.46;89.17;97286.30;107680;1256;66736;-40
2024/01/04 02:59:03;;;;;;;3.90;2.70;;;;;;;3.44;89.57;97287.41;107703;1251;73757;-40
2024/01/04 03:01:29;;;;;;;3.50;2.60;;;;;;;3.43;89.74;97284.29;107616;1251;61072;-40
2024/01/04 03:03:56;;;;;;;4.10;2.80;;;;;;;3.48;89.65;97277.23;107707;1251;60443;-40
2024/01/04 03:06:27;;;;;;;3.30;2.70;;;;;;;3.52;89.60;97277.97;107699;1251;74390;-40
2024/01/04 03:08:54;;;;;;;4.20;2.90;;;;;;;3.50;89.81;97277.09;107680;1251;67675;-40
2024/01/04 03:11:20;;;;;;;4.30;2.90;;;;;;;3.47;89.96;97278.91;107696;1251;73189;-40
2024/01/04 03:13:47;;;;;;;4.00;2.60;;;;;;;3.45;90.06;97284.98;107680;1251;61072;-42
2024/01/04 03:16:14;;;;;;;4.20;2.70;;;;;;;3.50;89.93;97286.83;107706;1251;60181;-40
2024/01/04 03:18:41;;;;;;;3.50;2.60;;;;;;;3.57;89.67;97289.04;107740;1255;74146;-40
2024/01/04 03:21:11;;;;;;;3.20;2.60;;;;;;;3.57;89.75;97294.55;107726;1251;67902;-40
2024/01/04 03:23:37;;;;;;;2.90;2.60;;;;;;;3.56;89.97;97287.80;107677;1251;73163;-40
2024/01/04 03:26:04;;;;;;;3.30;2.70;;;;;;;3.57;89.87;97294.40;107662;1251;60966;-40
2024/01/04 03:28:31;;;;;;;5.20;2.80;;;;;;;3.61;89.57;97294.69;107707;1251;60241;-41
2024/01/04 03:30:58;;;;;;;4.00;2.50;;;;;;;3.66;89.22;97292.77;107630;1251;147169;-40
2024/01/04 03:35:53;;;;;;;4.60;3.10;;;;;;;3.66;89.38;97286.17;104138;1293;600976;-40
2024/01/04 03:38:20;;;;;;;4.40;2.80;;;;;;;3.63;89.34;97288.05;106622;1267;59858;-40
2024/01/04 03:40:48;;;;;;;4.40;2.50;;;;;;;3.67;89.01;97287.72;106604;1267;60054;-39
2024/01/04 03:43:16;;;;;;;4.90;2.60;;;;;;;3.71;88.72;97285.10;106725;1267;70986;-40
2024/01/04 03:45:44;;;;;;;4.20;3.10;;;;;;;3.69;88.78;97282.92;106729;1266;66599;-40
2024/01/04 03:48:11;;;;;;;4.20;2.90;;;;;;;3.66;88.89;97282.34;106708;1267;72392;-40
2024/01/04 03:50:39;;;;;;;3.90;2.80;;;;;;;3.63;88.80;97285.98;106481;1264;343914;-39
2024/01/04 03:53:06;;;;;;;3.40;2.50;;;;;;;3.66;88.53;97285.56;106733;1264;59233;-40
2024/01/04 03:55:34;;;;;;;3.90;2.90;;;;;;;3.69;88.40;97284.67;106774;1264;70936;-40
2024/01/04 03:58:02;;;;;;;5.40;3.40;;;;;;;3.66;88.35;97285.34;106827;1264;67636;-40
2024/01/04 04:00:29;;;;;;;4.70;3.00;;;;;;;3.61;88.45;97287.20;106767;1264;72700;-40
2024/01/04 04:02:58;;;;;;;3.70;3.00;;;;;;;3.57;88.59;97287.06;106816;1263;59633;-39
2024/01/04 04:15:31;;;;;;;3.20;2.70;;;;;;;3.71;88.09;97287.63;100703;1281;948577;-41
2024/01/04 04:17:59;;;;;;;3.90;3.00;;;;;;;3.73;87.89;97286.95;105090;1287;59822;-40
2024/01/04 04:20:27;;;;;;;4.40;2.60;;;;;;;3.82;87.54;97286.76;105538;1283;59267;-40
2024/01/04 04:22:55;;;;;;;5.50;3.20;;;;;;;3.84;87.31;97284.26;105579;1278;73065;-40
2024/01/04 04:25:23;;;;;;;4.10;3.00;;;;;;;3.83;87.43;97287.53;105568;1278;66786;-39
2024/01/04 04:27:51;;;;;;;4.30;2.90;;;;;;;3.83;87.49;97289.44;105574;1282;71518;-39
2024/01/04 04:30:19;;;;;;;4.30;2.90;;;;;;;3.83;87.32;97286.84;105546;1280;59456;-38
2024/01/04 04:32:47;;;;;;;4.50;2.90;;;;;;;3.89;86.87;97286.38;105613;1279;59588;-39
2024/01/04 04:35:15;;;;;;;4.00;2.80;;;;;;;3.95;86.55;97285.15;105608;1278;73042;-39
2024/01/04 04:37:42;;;;;;;4.10;3.10;;;;;;;3.96;86.64;97288.22;105625;1278;67924;-39
2024/01/04 04:40:11;;;;;;;5.30;3.20;;;;;;;3.97;86.85;97291.06;105636;1278;71421;-39
2024/01/04 04:42:42;;;;;;;4.90;3.40;;;;;;;3.95;86.85;97297.09;105608;1278;59494;-39
2024/01/04 04:45:10;;;;;;;6.90;3.70;;;;;;;3.92;86.82;97296.36;105591;1278;59534;-39
2024/01/04 04:47:38;;;;;;;4.70;3.20;;;;;;;3.99;86.56;97300.51;105571;1278;73068;-39
2024/01/04 04:50:06;;;;;;;4.60;3.10;;;;;;;4.06;86.32;97306.40;105625;1278;66423;-39
2024/01/04 04:52:34;;;;;;;4.80;3.50;;;;;;;4.06;86.41;97309.70;105621;1280;72769;-39
2024/01/04 04:55:01;;;;;;;5.80;3.60;;;;;;;4.02;86.60;97310.41;104836;1278;1003670;-39
2024/01/04 04:57:31;;;;;;;5.80;3.70;;;;;;;3.99;86.91;97311.44;105619;1278;59715;-39
2024/01/04 04:59:58;;;;;;;5.70;3.70;;;;;;;3.98;87.17;97317.10;105552;1278;71837;-39
2024/01/04 05:02:26;;;;;;;6.10;4.00;;;;;;;4.02;87.22;97316.33;105560;1278;67344;-39
2024/01/04 05:04:53;;;;;;;6.40;3.40;;;;;;;4.04;87.48;97320.09;105587;1278;71834;-39
2024/01/04 05:07:20;;;;;;;6.60;4.10;;;;;;;4.01;87.94;97320.67;105536;1278;59519;-39
2024/01/04 05:09:48;;;;;;;5.30;3.30;;;;;;;3.99;88.29;97324.25;105600;1278;59576;-39
2024/01/04 05:12:15;;;;;;;4.00;2.80;;;;;;;4.01;88.15;97322.05;105585;1278;71678;-39
2024/01/04 05:14:43;;;;;;;3.50;2.90;;;;;;;4.08;87.80;97330.86;105597;1278;67650;-39
2024/01/04 05:17:11;;;;;;;4.90;2.60;;;;;;;4.11;87.49;97330.52;105553;1278;72724;-38
2024/01/04 05:19:38;;;;;;;3.70;2.90;;;;;;;4.09;87.46;97334.86;105620;1278;59376;-39
2024/01/04 05:22:06;;;;;;;6.10;3.30;;;;;;;4.08;87.51;97337.67;105624;1278;59562;-39
2024/01/04 05:24:37;;;;;;;3.20;2.90;;;;;;;4.07;87.50;97345.48;105609;1278;73114;-39
2024/01/04 05:27:04;;;;;;;5.80;2.70;;;;;;;4.12;87.02;97346.47;105598;1278;67929;-39
2024/01/04 05:29:32;;;;;;;5.60;3.10;;;;;;;4.18;86.58;97349.59;105558;1283;71473;-39
2024/01/04 05:31:59;;;;;;;4.60;3.10;;;;;;;4.16;86.57;97352.27;105560;1280;60102;-39
2024/01/04 05:34:29;;;;;;;4.30;3.40;;;;;;;4.14;86.37;97355.30;105568;1283;59625;-39
2024/01/04 05:36:57;;;;;;;4.60;3.30;;;;;;;4.10;86.17;97360.98;105611;1278;72235;-39
2024/01/04 05:39:25;;;;;;;3.80;3.00;;;;;;;4.07;86.08;97362.17;105592;1278;66833;-39
2024/01/04 05:41:53;;;;;;;5.40;3.20;;;;;;;4.10;85.86;97361.69;105610;1283;72481;-39
2024/01/04 05:44:20;;;;;;;4.00;3.10;;;;;;;4.16;85.44;97364.21;105563;1278;60281;-39
2024/01/04 05:46:48;;;;;;;5.20;3.00;;;;;;;4.13;85.09;97365.70;105578;1283;60021;-39
2024/01/04 05:49:16;;;;;;;4.70;3.30;;;;;;;4.08;85.23;97370.23;105565;1279;73061;-40
2024/01/04 05:51:43;;;;;;;5.30;3.20;;;;;;;4.02;85.32;97367.10;105576;1278;66349;-40
2024/01/04 05:54:11;;;;;;;5.80;3.00;;;;;;;3.98;85.40;97376.02;105569;1280;72588;-40
2024/01/04 05:56:38;;;;;;;5.10;3.00;;;;;;;4.01;85.16;97369.31;105571;1279;59668;-40
2024/01/04 05:59:06;;;;;;;7.90;3.20;;;;;;;4.07;85.02;97371.91;105646;1278;59628;-40
2024/01/04 06:01:36;;;;;;;4.50;3.00;;;;;;;4.08;84.89;97372.38;105630;1282;73238;-39
2024/01/04 06:04:04;;;;;;;4.10;3.10;;;;;;;4.05;84.91;97378.17;105626;1278;66683;-40
2024/01/04 06:06:32;;;;;;;6.10;2.80;;;;;;;4.01;84.91;97376.06;105576;1280;71463;-40
2024/01/04 06:08:59;;;;;;;3.30;2.80;;;;;;;3.98;84.92;97382.21;105590;1282;60959;-40
2024/01/04 06:11:27;;;;;;;3.70;2.90;;;;;;;4.02;84.74;97387.40;105628;1278;59283;-40
2024/01/04 06:13:54;;;;;;;5.90;3.30;;;;;;;4.08;84.43;97386.55;105576;1279;71844;-38
2024/01/04 06:16:22;;;;;;;4.50;3.30;;;;;;;4.07;84.42;97384.70;105579;1278;66445;-38
2024/01/04 06:18:50;;;;;;;3.40;2.90;;;;;;;4.05;84.73;97385.53;105606;1278;71521;-38
2024/01/04 06:21:17;;;;;;;7.20;3.60;;;;;;;4.00;85.01;97383.63;105528;1279;59726;-38
2024/01/04 06:23:45;;;;;;;5.10;3.10;;;;;;;3.96;85.33;97380.52;105555;1278;60194;-38
2024/01/04 06:26:19;;;;;;;5.50;2.90;;;;;;;4.00;85.35;97381.33;105589;1278;71921;-38
2024/01/04 06:28:47;;;;;;;4.20;3.30;;;;;;;4.06;85.32;97383.39;105560;1283;66800;-38
2024/01/04 06:31:14;;;;;;;5.00;3.20;;;;;;;4.06;85.73;97386.77;104816;1278;1002949;-38
2024/01/04 06:33:42;;;;;;;4.20;3.20;;;;;;;4.06;86.11;97387.70;105534;1278;60053;-39
2024/01/04 06:36:10;;;;;;;4.80;2.90;;;;;;;4.06;86.27;97389.14;105530;1278;59611;-39
2024/01/04 06:38:38;;;;;;;4.10;2.90;;;;;;;4.10;86.24;97389.57;105559;1278;73074;-39
2024/01/04 06:41:07;;;;;;;4.10;3.00;;;;;;;4.17;86.08;97393.80;105576;1278;66653;-39
2024/01/04 06:43:35;;;;;;;4.90;3.20;;;;;;;4.18;86.37;97390.82;105601;1278;71213;-39
2024/01/04 06:46:03;;;;;;;7.10;3.20;;;;;;;4.16;86.62;97389.59;105561;1278;59761;-39
2024/01/04 06:48:30;;;;;;;5.10;3.20;;;;;;;4.14;86.59;97397.27;105604;1278;59634;-39
2024/01/04 06:50:58;;;;;;;4.90;3.20;;;;;;;4.15;86.53;97389.73;105619;1278;71878;-39
2024/01/04 06:53:26;;;;;;;5.20;3.40;;;;;;;4.22;86.31;97388.72;105575;1278;67096;-40
2024/01/04 06:55:53;;;;;;;7.20;3.40;;;;;;;4.28;86.30;97388.17;105529;1281;71473;-40
2024/01/04 06:58:21;;;;;;;4.10;3.00;;;;;;;4.29;86.67;97393.03;105919;1275;60112;-40
2024/01/04 07:00:48;;;;;;;4.90;3.40;;;;;;;4.30;86.47;97394.87;106005;1275;59779;-40
2024/01/04 07:03:19;;;;;;;3.90;3.00;;;;;;;4.31;86.49;97395.64;105898;1274;71814;-40
2024/01/04 07:05:47;;;;;;;3.20;2.60;;;;;;;4.35;86.09;97404.13;105939;1274;68073;-40
2024/01/04 07:08:15;;;;;;;4.50;3.00;;;;;;;4.41;85.78;97402.51;105960;1274;72512;-40
2024/01/04 07:10:42;;;;;;;4.90;3.30;;;;;;;4.42;85.96;97403.13;105904;1274;59452;-40
2024/01/04 07:13:10;;;;;;;4.90;3.20;;;;;;;4.41;86.20;97401.66;106005;1274;60017;-40
2024/01/04 07:15:37;;;;;;;5.70;3.60;;;;;;;4.39;86.38;97401.59;106009;1274;73070;-40
2024/01/04 07:18:05;;;;;;;5.50;3.50;;;;;;;4.40;86.34;97406.02;105938;1274;67747;-40
2024/01/04 07:20:33;;;;;;;4.90;3.20;;;;;;;4.44;86.04;97405.61;105922;1276;71588;-39
2024/01/04 07:23:00;;;;;;;5.10;3.30;;;;;;;4.49;85.60;97407.89;106011;1279;59556;-39
2024/01/04 07:25:28;;;;;;;3.50;2.90;;;;;;;4.48;85.77;97405.52;105933;1275;59857;-40
2024/01/04 07:27:55;;;;;;;4.40;3.10;;;;;;;4.45;85.84;97400.48;105943;1278;73134;-40
2024/01/04 07:30:23;;;;;;;4.70;3.20;;;;;;;4.43;85.89;97399.70;105937;1275;67559;-39
2024/01/04 07:32:50;;;;;;;5.90;3.40;;;;;;;4.42;85.79;97400.84;105917;1276;71451;-39
2024/01/04 07:35:23;;;;;;;6.30;3.40;;;;;;;4.48;85.46;97407.35;105196;1274;1002903;-39
2024/01/04 07:37:51;;;;;;;6.00;3.60;;;;;;;4.54;85.28;97405.80;105938;1274;60268;-39
2024/01/04 07:40:18;;;;;;;5.90;3.70;;;;;;;4.54;85.49;97403.43;106039;1275;73061;-39
2024/01/04 07:42:46;;;;;;;7.10;4.00;;;;;;;4.54;85.62;97405.27;105932;1274;66647;-39
2024/01/04 07:45:13;;;;;;;5.10;3.70;;;;;;;4.52;85.37;97404.39;106465;1270;72700;-39
2024/01/04 07:47:41;;;;;;;6.20;3.70;;;;;;;4.50;85.55;97405.92;106453;1271;61262;-39
2024/01/04 07:50:09;;;;;;;5.20;3.50;;;;;;;4.53;85.29;97405.18;106471;1270;60329;-39
2024/01/04 07:52:36;;;;;;;6.00;3.90;;;;;;;4.61;85.32;97408.10;106466;1270;73825;-39
2024/01/04 07:55:05;;;;;;;5.50;3.60;;;;;;;4.63;85.45;97412.11;106478;1270;68073;-39
2024/01/04 07:57:34;;;;;;;;;;;;;;;4.61;85.84;97409.55;106514;1270;73789;-39
2024/01/04 08:00:03;;;;;;;5.90;3.70;;;;;;;4.58;86.15;97411.14;106464;1271;60419;-39
2024/01/04 08:02:39;;;;;;;5.40;3.50;;;;;;;4.57;86.33;97409.06;106486;1275;60186;-39
2024/01/04 08:05:09;;;;;;;3.80;2.40;;;;;;;4.63;86.25;97411.81;106465;1276;73857;-39
2024/01/04 08:07:37;;;;;;;8.50;4.10;;;;;;;4.69;86.37;97412.17;106552;1270;67209;-38
2024/01/04 08:10:06;;;;;;;8.20;4.00;;;;;;;4.70;86.84;97413.19;106440;1270;70871;-39
2024/01/04 08:12:33;;;;;;;6.70;3.70;;;;;;;4.72;87.06;97412.27;106524;1271;60620;-39
2024/01/04 08:15:01;;;;;;;4.70;3.10;;;;;;;4.76;87.44;97413.09;106439;1270;60597;-39
2024/01/04 08:17:29;;;;;;;6.80;3.60;;;;;;;4.91;87.68;97412.33;106423;1270;73887;-39
2024/01/04 08:19:57;;;;;;;4.20;3.00;;;;;;;5.02;87.63;97410.80;106468;1270;67527;-39
2024/01/04 08:22:25;;;;;;;5.00;3.20;;;;;;;5.08;87.95;97408.48;106461;1271;71488;-39
2024/01/04 08:24:52;;;;;;;4.60;3.10;;;;;;;5.14;88.07;97407.55;106490;1275;60481;-39
2024/01/04 08:27:19;;;;;;;6.90;3.30;;;;;;;5.18;87.72;97407.19;106412;1270;60353;-39
2024/01/04 08:29:49;;;;;;;3.80;2.70;;;;;;;5.25;87.55;97408.55;106469;1270;73933;-38
2024/01/04 08:32:17;;;;;;;4.10;2.50;;;;;;;5.32;87.28;97411.38;106462;1270;66669;-39
2024/01/04 08:34:45;;;;;;;3.80;2.90;;;;;;;5.32;87.49;97410.69;106457;1270;71494;-39
2024/01/04 08:37:14;;;;;;;3.90;2.70;;;;;;;5.32;87.53;97410.00;106468;1271;60880;-39
2024/01/04 08:39:42;;;;;;;4.30;3.00;;;;;;;5.31;87.25;97406.61;106463;1271;60529;-39
2024/01/04 08:42:10;;;;;;;4.30;2.80;;;;;;;5.37;87.09;97411.64;106431;1270;73953;-39
2024/01/04 08:44:37;;;;;;;5.10;2.70;;;;;;;5.42;87.04;97409.60;106455;1270;67637;-39
2024/01/04 08:47:05;;;;;;;4.30;3.00;;;;;;;5.43;87.05;97411.08;106412;1271;71684;-39
2024/01/04 08:49:33;;;;;;;5.00;2.90;;;;;;;5.41;87.16;97407.15;106415;1270;60583;-39
2024/01/04 08:52:01;;;;;;;4.50;3.00;;;;;;;5.42;87.21;97406.70;106450;1274;60368;-39
2024/01/04 08:54:28;;;;;;;3.60;2.70;;;;;;;5.47;86.84;97408.73;106441;1270;73898;-39
2024/01/04 08:56:56;;;;;;;7.20;3.00;;;;;;;5.51;86.49;97405.77;106451;1270;67366;-39
2024/01/04 08:59:24;;;;;;;5.60;3.20;;;;;;;5.49;86.53;97408.20;106457;1271;73436;-39
2024/01/04 09:01:51;;;;;;;4.10;3.00;;;;;;;5.44;86.56;97409.32;106446;1271;60595;-39
2024/01/04 09:04:20;;;;;;;4.60;3.00;;;;;;;5.40;86.48;97409.36;106418;1270;59990;-38
2024/01/04 09:06:48;;;;;;;5.60;2.70;;;;;;;5.44;86.43;97411.16;106416;1270;73855;-38
2024/01/04 09:09:15;;;;;;;5.30;2.90;;;;;;;5.48;86.27;97412.80;106445;1270;67907;-37
2024/01/04 09:11:48;;;;;;;5.60;2.80;;;;;;;5.43;86.32;97411.92;106425;1270;72683;-38
2024/01/04 09:14:16;;;;;;;5.30;3.20;;;;;;;5.37;86.50;97408.35;106447;1271;60345;-39
2024/01/04 09:16:44;;;;;;;4.60;2.50;;;;;;;5.34;86.55;97412.08;106439;1270;60419;-38
2024/01/04 09:19:16;;;;;;;4.90;2.80;;;;;;;5.39;86.45;97409.98;106428;1270;73887;-38
2024/01/04 09:21:47;;;;;;;3.90;2.80;;;;;;;5.43;86.37;97408.69;106479;1270;66650;-38
2024/01/04 09:24:15;;;;;;;3.60;2.80;;;;;;;5.42;86.75;97410.22;106486;1271;71541;-38
2024/01/04 09:26:43;;;;;;;4.50;2.90;;;;;;;5.41;87.08;97408.99;106447;1271;61687;-39
2024/01/04 09:29:13;;;;;;;3.50;2.60;;;;;;;5.45;87.09;97412.16;106451;1271;60312;-39
2024/01/04 09:31:41;;;;;;;4.40;2.50;;;;;;;5.48;86.80;97414.10;106437;1271;74267;-39
2024/01/04 09:34:10;;;;;;;7.00;2.90;;;;;;;5.45;86.95;97415.08;106405;1270;66443;-39
2024/01/04 09:36:37;;;;;;;4.30;2.70;;;;;;;5.40;86.98;97411.30;106432;1271;72837;-39
2024/01/04 09:39:05;;;;;;;6.00;2.90;;;;;;;5.35;87.14;97408.55;106384;1275;60603;-39
2024/01/04 09:41:35;;;;;;;3.50;2.80;;;;;;;5.41;87.36;97408.67;106428;1270;61185;-39
2024/01/04 09:44:06;;;;;;;5.50;2.80;;;;;;;5.49;87.30;97407.13;106490;1270;73853;-39
2024/01/04 09:46:35;;;;;;;6.00;3.00;;;;;;;5.54;87.48;97406.71;106432;1270;66451;-39
2024/01/04 09:49:03;;;;;;;4.90;2.90;;;;;;;5.57;87.62;97409.73;106415;1270;72485;-39
2024/01/04 09:51:39;;;;;;;4.80;3.10;;;;;;;5.61;87.76;97411.14;106490;1270;61682;-38
2024/01/04 09:54:08;;;;;;;5.30;3.20;;;;;;;5.77;87.79;97414.54;104985;1275;1004970;-39
2024/01/04 09:56:40;;;;;;;4.40;3.00;;;;;;;5.98;87.95;97411.94;106453;1271;73877;-39
2024/01/04 09:59:08;;;;;;;4.80;3.10;;;;;;;6.16;88.20;97411.24;106470;1270;67792;-39
2024/01/04 10:01:37;;;;;;;5.50;2.90;;;;;;;6.31;88.04;97409.63;106430;1271;72497;-39
2024/01/04 10:04:06;;;;;;;;;;;;;;;6.46;87.45;97406.39;106438;1271;61984;-39
2024/01/04 10:06:35;;;;;;;3.60;2.40;;;;;;;6.64;86.55;97399.81;106463;1270;60339;-40
2024/01/04 10:09:24;;;;;;;6.30;3.40;;;;;;;6.75;86.14;97398.39;106525;1271;72466;-40
2024/01/04 10:11:54;;;;;;;5.30;3.50;;;;;;;6.82;85.49;97392.40;106427;1272;68299;-40
2024/01/04 10:14:26;;;;;;;4.90;3.10;;;;;;;6.85;85.07;97392.94;106435;1271;72761;-40
2024/01/04 10:16:56;;;;;;;6.70;3.00;;;;;;;6.89;84.41;97389.72;106415;1270;62302;-40
2024/01/04 10:19:23;;;;;;;4.50;3.20;;;;;;;6.93;83.98;97389.80;106490;1270;60070;-39
2024/01/04 10:21:52;;;;;;;5.20;3.80;;;;;;;6.93;83.52;97390.42;106493;1270;73506;-39
2024/01/04 10:24:23;;;;;;;4.50;3.40;;;;;;;6.85;83.51;97389.26;106499;1270;67558;-40
2024/01/04 10:26:56;;;;;;;6.40;3.50;;;;;;;6.76;83.49;97382.46;106518;1272;72034;-40
2024/01/04 10:29:25;;;;;;;5.10;3.10;;;;;;;6.76;83.53;97381.63;106488;1270;61666;-40
2024/01/04 10:32:12;;;;;;;6.50;3.10;;;;;;;6.78;83.14;97380.55;106531;1271;60484;-40
2024/01/04 10:34:40;;;;;;;6.10;3.60;;;;;;;6.70;83.31;97376.98;106444;1275;73937;-40
2024/01/04 10:37:12;;;;;;;6.10;4.10;;;;;;;6.65;83.47;97375.83;106468;1276;68539;-39
2024/01/04 10:39:45;;;;;;;5.40;3.70;;;;;;;6.54;83.57;97368.02;106497;1270;72788;-39
2024/01/04 10:42:13;;;;;;;8.20;4.60;;;;;;;6.58;83.45;97374.51;106486;1271;62137;-40
2024/01/04 10:44:43;;;;;;;6.70;4.50;;;;;;;6.57;83.34;97371.81;106507;1271;60575;-40
2024/01/04 10:47:13;;;;;;;8.00;5.30;;;;;;;6.54;83.58;97375.10;106261;1271;74012;-39
2024/01/04 10:49:42;;;;;;;;;;;;;;;6.51;83.99;97372.79;106507;1270;67902;-39
2024/01/04 10:52:14;;;;;;;7.70;5.40;;;;;;;6.48;83.88;97376.31;106474;1271;72921;-40
2024/01/04 10:54:42;;;;;;;6.70;4.80;;;;;;;6.45;83.94;97372.45;106490;1270;60403;-39
2024/01/04 10:57:11;;;;;;;7.50;5.00;;;;;;;6.49;83.77;97375.32;106519;1271;60384;-39
2024/01/04 10:59:39;;;;;;;6.30;4.30;;;;;;;6.52;83.89;97373.48;106524;1274;72987;-39
2024/01/04 11:02:07;;;;;;;7.00;4.60;;;;;;;6.55;84.24;97374.02;106435;1272;68577;-39
2024/01/04 11:04:34;;;;;;;6.10;4.20;;;;;;;6.61;84.45;97374.50;106486;1271;72724;-39
2024/01/04 11:07:02;;;;;;;5.30;3.60;;;;;;;6.65;84.37;97374.67;106199;1270;60657;-39
2024/01/04 11:09:30;;;;;;;4.60;3.40;;;;;;;6.72;84.02;97375.06;106468;1270;60385;-39
2024/01/04 11:11:59;;;;;;;5.80;3.50;;;;;;;6.78;83.89;97372.92;106479;1271;73886;-40
2024/01/04 11:14:27;;;;;;;5.50;3.90;;;;;;;6.78;83.85;97374.08;106437;1271;67624;-39
2024/01/04 11:17:36;;;;;;;6.10;3.40;;;;;;;6.77;83.92;97374.16;106496;1274;71012;-39
2024/01/04 11:20:31;;;;;;;5.20;3.60;;;;;;;6.82;83.98;97371.08;106424;1271;61754;-40
2024/01/04 11:23:57;;;;;;;6.70;3.60;;;;;;;6.94;83.71;97374.79;106457;1271;60428;-39
2024/01/04 11:26:28;;;;;;;6.80;3.70;;;;;;;7.05;83.48;97374.89;105553;1277;74008;-40
2024/01/04 11:29:00;;;;;;;5.80;3.80;;;;;;;7.06;83.31;97378.52;106294;1270;66030;-39
2024/01/04 11:31:27;;;;;;;6.40;4.10;;;;;;;7.03;82.95;97377.03;106433;1271;71997;-39
2024/01/04 11:33:55;;;;;;;5.10;3.40;;;;;;;7.01;83.03;97376.58;106396;1270;61809;-39
2024/01/04 11:36:24;;;;;;;5.10;3.40;;;;;;;7.07;82.76;97371.65;106402;1271;60358;-39
2024/01/04 11:38:54;;;;;;;5.60;3.40;;;;;;;7.10;82.48;97376.90;106437;1270;73980;-39
2024/01/04 11:41:36;;;;;;;5.50;3.40;;;;;;;7.08;82.53;97374.03;106434;1271;67769;-40
2024/01/04 11:44:14;;;;;;;5.70;3.60;;;;;;;7.08;82.72;97383.05;106441;1274;72776;-39
2024/01/04 11:46:42;;;;;;;6.80;4.00;;;;;;;7.08;82.64;97380.50;106396;1272;61868;-39
2024/01/04 11:49:12;;;;;;;5.80;3.50;;;;;;;7.14;82.32;97378.58;106441;1273;60313;-39
2024/01/04 11:51:47;;;;;;;5.80;3.00;;;;;;;7.19;82.13;97378.66;106514;1275;74122;-40